createdAt,value
2019-03-08T00:00:38.009Z,0.00
2019-03-08T00:01:37.995Z,0.00
2019-03-08T00:02:37.973Z,0.00
2019-03-08T00:03:37.965Z,0.00
2019-03-08T00:04:37.947Z,0.00
2019-03-08T00:05:37.925Z,0.00
2019-03-08T00:06:37.916Z,0.00
2019-03-08T00:07:37.894Z,0.00
2019-03-08T00:08:37.882Z,0.00
2019-03-08T00:09:37.865Z,0.00
2019-03-08T00:10:37.856Z,0.00
2019-03-08T00:11:37.833Z,0.00
2019-03-08T00:12:37.816Z,0.00
2019-03-08T00:13:37.801Z,0.00
2019-03-08T00:14:37.781Z,0.00
2019-03-08T00:15:37.776Z,0.00
2019-03-08T00:16:37.754Z,0.00
2019-03-08T00:17:37.736Z,0.00
2019-03-08T00:18:37.722Z,0.00
2019-03-08T00:19:37.703Z,0.00
2019-03-08T00:20:37.688Z,0.00
2019-03-08T00:21:37.673Z,0.00
2019-03-08T00:22:37.657Z,0.00
2019-03-08T00:23:37.642Z,0.00
2019-03-08T00:24:37.617Z,0.00
2019-03-08T00:25:37.607Z,0.00
2019-03-08T00:26:37.603Z,0.00
2019-03-08T00:27:37.588Z,0.00
2019-03-08T00:28:37.566Z,0.00
2019-03-08T00:29:37.543Z,0.00
2019-03-08T00:30:37.528Z,0.00
2019-03-08T00:31:37.512Z,0.00
2019-03-08T00:32:37.494Z,0.00
2019-03-08T00:33:37.477Z,0.00
2019-03-08T00:34:37.462Z,0.00
2019-03-08T00:35:37.448Z,0.00
2019-03-08T00:36:37.424Z,0.00
2019-03-08T00:37:37.412Z,0.00
2019-03-08T00:38:37.405Z,0.00
2019-03-08T00:39:37.387Z,0.00
2019-03-08T00:40:37.370Z,0.00
2019-03-08T00:41:37.349Z,0.00
2019-03-08T00:42:37.333Z,0.00
2019-03-08T00:43:37.318Z,0.00
2019-03-08T00:44:37.304Z,0.00
2019-03-08T00:45:37.289Z,0.00
2019-03-08T00:46:37.271Z,0.00
2019-03-08T00:47:37.255Z,0.00
2019-03-08T00:48:37.237Z,0.00
2019-03-08T00:49:37.219Z,0.00
2019-03-08T00:50:37.208Z,0.00
2019-03-08T00:51:37.191Z,0.00
2019-03-08T00:52:37.167Z,0.00
2019-03-08T00:53:37.153Z,0.00
2019-03-08T00:54:37.138Z,0.00
2019-03-08T00:55:37.118Z,0.00
2019-03-08T00:56:37.115Z,0.00
2019-03-08T00:57:37.090Z,0.00
2019-03-08T00:58:37.074Z,0.00
2019-03-08T00:59:37.056Z,0.00
2019-03-08T01:00:37.041Z,0.00
2019-03-08T01:01:37.024Z,0.00
2019-03-08T01:02:37.006Z,0.00
2019-03-08T01:03:36.996Z,0.00
2019-03-08T01:04:36.979Z,0.00
2019-03-08T01:05:36.976Z,0.00
2019-03-08T01:06:36.945Z,0.00
2019-03-08T01:07:36.929Z,0.00
2019-03-08T01:08:36.914Z,0.00
2019-03-08T01:09:36.904Z,0.00
2019-03-08T01:10:36.880Z,0.00
2019-03-08T01:11:36.878Z,0.00
2019-03-08T01:12:36.850Z,0.00
2019-03-08T01:13:36.832Z,0.00
2019-03-08T01:14:36.819Z,0.00
2019-03-08T01:15:36.800Z,0.00
2019-03-08T01:16:36.781Z,0.00
2019-03-08T01:17:36.767Z,0.00
2019-03-08T01:18:36.748Z,0.00
2019-03-08T01:19:36.732Z,0.00
2019-03-08T01:20:36.718Z,0.00
2019-03-08T01:21:36.700Z,0.00
2019-03-08T01:22:36.686Z,0.00
2019-03-08T01:23:36.672Z,0.00
2019-03-08T01:24:36.652Z,0.00
2019-03-08T01:25:36.633Z,0.00
2019-03-08T01:26:36.634Z,0.00
2019-03-08T01:27:36.608Z,0.00
2019-03-08T01:28:36.589Z,0.00
2019-03-08T01:29:36.573Z,0.00
2019-03-08T01:30:36.557Z,0.00
2019-03-08T01:31:36.543Z,0.00
2019-03-08T01:32:36.523Z,0.00
2019-03-08T01:33:36.509Z,0.00
2019-03-08T01:34:36.489Z,0.00
2019-03-08T01:35:36.478Z,0.00
2019-03-08T01:36:36.463Z,0.00
2019-03-08T01:37:36.440Z,0.00
2019-03-08T01:38:36.418Z,0.00
2019-03-08T01:39:36.414Z,0.00
2019-03-08T01:40:36.393Z,0.00
2019-03-08T01:41:36.376Z,0.00
2019-03-08T01:42:36.363Z,0.00
2019-03-08T01:43:36.350Z,0.00
2019-03-08T01:44:36.326Z,0.00
2019-03-08T01:45:36.312Z,0.00
2019-03-08T01:46:36.293Z,0.00
2019-03-08T01:47:36.277Z,0.00
2019-03-08T01:48:36.263Z,0.00
2019-03-08T01:49:36.247Z,0.00
2019-03-08T01:50:36.232Z,0.00
2019-03-08T01:51:36.212Z,0.00
2019-03-08T01:52:36.197Z,0.00
2019-03-08T01:53:57.180Z,0.00
2019-03-08T01:54:36.174Z,0.00
2019-03-08T01:55:36.147Z,0.00
2019-03-08T01:56:36.128Z,0.00
2019-03-08T01:57:36.117Z,0.00
2019-03-08T01:58:36.101Z,0.00
2019-03-08T01:59:36.077Z,0.00
2019-03-08T02:00:36.065Z,0.00
2019-03-08T02:01:36.047Z,0.00
2019-03-08T02:02:36.033Z,0.00
2019-03-08T02:03:36.015Z,0.00
2019-03-08T02:04:35.999Z,0.00
2019-03-08T02:05:35.984Z,0.00
2019-03-08T02:06:35.984Z,0.00
2019-03-08T02:07:35.946Z,0.00
2019-03-08T02:08:35.930Z,0.00
2019-03-08T02:09:35.918Z,0.00
2019-03-08T02:10:35.902Z,0.00
2019-03-08T02:11:35.888Z,0.00
2019-03-08T02:12:35.870Z,0.00
2019-03-08T02:13:35.857Z,0.00
2019-03-08T02:14:35.842Z,0.00
2019-03-08T02:15:35.825Z,0.00
2019-03-08T02:16:35.801Z,0.00
2019-03-08T02:17:35.786Z,0.00
2019-03-08T02:18:35.768Z,0.00
2019-03-08T02:19:35.758Z,0.00
2019-03-08T02:20:35.780Z,0.00
2019-03-08T02:21:35.721Z,0.00
2019-03-08T02:22:35.709Z,0.00
2019-03-08T02:23:35.691Z,0.00
2019-03-08T02:24:35.673Z,0.00
2019-03-08T02:25:35.661Z,0.00
2019-03-08T02:26:35.641Z,0.00
2019-03-08T02:27:35.627Z,0.00
2019-03-08T02:28:35.607Z,0.00
2019-03-08T02:29:35.592Z,0.00
2019-03-08T02:30:35.575Z,0.00
2019-03-08T02:31:35.562Z,0.00
2019-03-08T02:32:35.541Z,0.00
2019-03-08T02:33:35.524Z,0.00
2019-03-08T02:34:35.510Z,0.00
2019-03-08T02:35:35.497Z,0.00
2019-03-08T02:36:35.480Z,0.00
2019-03-08T02:37:35.457Z,0.00
2019-03-08T02:38:35.445Z,0.00
2019-03-08T02:39:35.432Z,0.00
2019-03-08T02:40:35.414Z,0.00
2019-03-08T02:41:35.395Z,0.00
2019-03-08T02:42:35.379Z,0.00
2019-03-08T02:43:35.369Z,0.00
2019-03-08T02:44:35.345Z,0.00
2019-03-08T02:45:35.329Z,0.00
2019-03-08T02:46:35.312Z,0.00
2019-03-08T02:47:35.296Z,0.00
2019-03-08T02:48:35.282Z,0.00
2019-03-08T02:49:35.285Z,0.00
2019-03-08T02:50:35.244Z,0.00
2019-03-08T02:51:35.232Z,0.00
2019-03-08T02:52:35.210Z,0.00
2019-03-08T02:53:35.201Z,0.00
2019-03-08T02:54:35.183Z,0.00
2019-03-08T02:55:35.163Z,0.00
2019-03-08T02:56:35.151Z,0.00
2019-03-08T02:57:35.128Z,0.00
2019-03-08T02:58:35.115Z,0.00
2019-03-08T02:59:35.101Z,0.00
2019-03-08T03:00:35.086Z,0.00
2019-03-08T03:01:35.071Z,0.00
2019-03-08T03:02:35.047Z,0.00
2019-03-08T03:03:35.037Z,0.00
2019-03-08T03:04:35.017Z,0.00
2019-03-08T03:05:35.005Z,0.00
2019-03-08T03:06:34.981Z,0.00
2019-03-08T03:07:34.963Z,0.00
2019-03-08T03:08:34.954Z,0.00
2019-03-08T03:09:34.934Z,0.00
2019-03-08T03:10:34.922Z,0.00
2019-03-08T03:11:34.902Z,0.00
2019-03-08T03:12:34.886Z,0.00
2019-03-08T03:13:34.870Z,0.00
2019-03-08T03:14:34.854Z,0.00
2019-03-08T03:15:34.838Z,0.00
2019-03-08T03:16:34.820Z,0.00
2019-03-08T03:17:34.799Z,0.00
2019-03-08T03:18:34.785Z,0.00
2019-03-08T03:19:34.769Z,0.00
2019-03-08T03:20:34.751Z,0.00
2019-03-08T03:21:34.737Z,0.00
2019-03-08T03:22:34.729Z,0.00
2019-03-08T03:23:34.704Z,0.00
2019-03-08T03:24:34.683Z,0.00
2019-03-08T03:25:34.670Z,0.00
2019-03-08T03:26:34.651Z,0.00
2019-03-08T03:27:34.634Z,0.00
2019-03-08T03:28:34.618Z,0.00
2019-03-08T03:29:34.604Z,0.00
2019-03-08T03:30:34.590Z,0.00
2019-03-08T03:31:34.573Z,0.00
2019-03-08T03:32:34.557Z,0.00
2019-03-08T03:33:34.537Z,0.00
2019-03-08T03:34:34.525Z,0.00
2019-03-08T03:35:34.505Z,0.00
2019-03-08T03:36:35.119Z,0.00
2019-03-08T03:37:34.475Z,0.00
2019-03-08T03:38:34.457Z,0.00
2019-03-08T03:39:34.437Z,0.00
2019-03-08T03:40:34.421Z,0.00
2019-03-08T03:41:34.402Z,0.00
2019-03-08T03:42:34.382Z,0.00
2019-03-08T03:43:34.374Z,0.00
2019-03-08T03:44:34.366Z,0.00
2019-03-08T03:45:34.340Z,0.00
2019-03-08T03:46:34.320Z,0.00
2019-03-08T03:47:34.302Z,0.00
2019-03-08T03:48:34.284Z,0.00
2019-03-08T03:49:34.271Z,0.00
2019-03-08T03:50:34.259Z,0.00
2019-03-08T03:51:34.243Z,0.00
2019-03-08T03:52:34.227Z,0.00
2019-03-08T03:53:34.207Z,0.00
2019-03-08T03:54:34.189Z,0.00
2019-03-08T03:55:34.175Z,0.00
2019-03-08T03:56:34.157Z,0.00
2019-03-08T03:57:34.142Z,0.00
2019-03-08T03:58:34.122Z,0.00
2019-03-08T03:59:34.102Z,0.00
2019-03-08T04:00:34.099Z,0.00
2019-03-08T04:01:34.070Z,0.00
2019-03-08T04:02:34.060Z,0.00
2019-03-08T04:03:34.042Z,0.00
2019-03-08T04:04:34.025Z,0.00
2019-03-08T04:05:34.011Z,0.00
2019-03-08T04:06:33.995Z,0.00
2019-03-08T04:07:33.977Z,0.00
2019-03-08T04:08:33.958Z,0.00
2019-03-08T04:09:33.939Z,0.00
2019-03-08T04:10:33.923Z,0.00
2019-03-08T04:11:33.905Z,0.00
2019-03-08T04:12:33.889Z,0.00
2019-03-08T04:13:33.876Z,0.00
2019-03-08T04:14:33.856Z,0.00
2019-03-08T04:15:33.842Z,0.00
2019-03-08T04:16:33.816Z,0.00
2019-03-08T04:17:33.802Z,0.00
2019-03-08T04:18:33.788Z,0.00
2019-03-08T04:19:33.776Z,0.00
2019-03-08T04:20:33.757Z,0.00
2019-03-08T04:21:33.748Z,0.00
2019-03-08T04:22:33.725Z,0.00
2019-03-08T04:23:33.705Z,0.00
2019-03-08T04:24:33.694Z,0.00
2019-03-08T04:25:33.670Z,0.00
2019-03-08T04:26:33.664Z,0.00
2019-03-08T04:27:33.638Z,0.00
2019-03-08T04:28:33.624Z,0.00
2019-03-08T04:29:33.609Z,0.00
2019-03-08T04:30:33.588Z,0.00
2019-03-08T04:31:33.577Z,0.00
2019-03-08T04:32:33.549Z,0.00
2019-03-08T04:33:33.539Z,0.00
2019-03-08T04:34:33.521Z,0.00
2019-03-08T04:35:33.510Z,0.00
2019-03-08T04:36:33.489Z,0.00
2019-03-08T04:37:33.472Z,0.00
2019-03-08T04:38:33.469Z,0.00
2019-03-08T04:39:33.443Z,0.00
2019-03-08T04:40:33.418Z,0.00
2019-03-08T04:41:33.410Z,0.00
2019-03-08T04:42:33.385Z,0.00
2019-03-08T04:43:33.370Z,0.00
2019-03-08T04:44:33.350Z,0.00
2019-03-08T04:45:33.337Z,0.00
2019-03-08T04:46:33.320Z,0.00
2019-03-08T04:47:33.303Z,0.00
2019-03-08T04:48:33.287Z,0.00
2019-03-08T04:49:33.271Z,0.00
2019-03-08T04:50:33.251Z,0.00
2019-03-08T04:51:33.239Z,0.00
2019-03-08T04:52:33.221Z,0.00
2019-03-08T04:53:33.203Z,0.00
2019-03-08T04:54:33.184Z,0.00
2019-03-08T04:55:33.182Z,0.00
2019-03-08T04:56:33.146Z,0.00
2019-03-08T04:57:33.137Z,0.00
2019-03-08T04:58:33.115Z,0.00
2019-03-08T04:59:33.107Z,0.00
2019-03-08T05:00:33.080Z,0.00
2019-03-08T05:01:33.066Z,0.00
2019-03-08T05:02:33.052Z,0.00
2019-03-08T05:03:33.031Z,0.00
2019-03-08T05:04:33.014Z,0.00
2019-03-08T05:05:32.998Z,0.00
2019-03-08T05:06:32.982Z,0.00
2019-03-08T05:07:32.964Z,0.00
2019-03-08T05:08:32.940Z,0.00
2019-03-08T05:09:32.933Z,0.00
2019-03-08T05:10:32.915Z,0.00
2019-03-08T05:11:32.904Z,0.00
2019-03-08T05:12:32.878Z,0.00
2019-03-08T05:13:32.871Z,0.00
2019-03-08T05:14:32.849Z,0.00
2019-03-08T05:15:32.845Z,0.00
2019-03-08T05:16:32.814Z,0.00
2019-03-08T05:17:32.805Z,0.00
2019-03-08T05:18:33.080Z,0.00
2019-03-08T05:19:32.762Z,0.00
2019-03-08T05:20:32.741Z,0.00
2019-03-08T05:21:32.720Z,0.00
2019-03-08T05:22:32.713Z,0.00
2019-03-08T05:23:32.692Z,0.00
2019-03-08T05:24:32.681Z,0.00
2019-03-08T05:25:32.659Z,0.00
2019-03-08T05:26:32.643Z,0.00
2019-03-08T05:27:32.624Z,0.00
2019-03-08T05:28:32.608Z,0.00
2019-03-08T05:29:32.580Z,4.00
2019-03-08T05:30:32.570Z,4.00
2019-03-08T05:31:32.556Z,0.00
2019-03-08T05:32:32.537Z,4.00
2019-03-08T05:33:32.514Z,4.00
2019-03-08T05:34:32.503Z,4.00
2019-03-08T05:35:32.487Z,4.00
2019-03-08T05:36:32.466Z,8.00
2019-03-08T05:37:32.448Z,8.00
2019-03-08T05:38:32.434Z,12.00
2019-03-08T05:39:32.419Z,12.00
2019-03-08T05:40:32.400Z,16.00
2019-03-08T05:41:32.388Z,12.00
2019-03-08T05:42:32.368Z,16.00
2019-03-08T05:43:32.351Z,20.00
2019-03-08T05:44:32.333Z,24.00
2019-03-08T05:45:32.318Z,28.00
2019-03-08T05:46:32.295Z,28.00
2019-03-08T05:47:32.280Z,32.00
2019-03-08T05:48:32.262Z,36.00
2019-03-08T05:49:32.250Z,44.00
2019-03-08T05:50:32.231Z,48.00
2019-03-08T05:51:32.216Z,52.00
2019-03-08T05:52:32.201Z,60.00
2019-03-08T05:53:32.195Z,64.00
2019-03-08T05:54:32.179Z,68.00
2019-03-08T05:55:32.142Z,76.00
2019-03-08T05:56:32.128Z,80.00
2019-03-08T05:57:32.110Z,88.00
2019-03-08T05:58:32.091Z,96.00
2019-03-08T05:59:32.078Z,108.00
2019-03-08T06:00:33.866Z,112.00
2019-03-08T06:01:32.038Z,116.00
2019-03-08T06:02:32.025Z,124.00
2019-03-08T06:03:32.014Z,132.00
2019-03-08T06:04:31.986Z,136.00
2019-03-08T06:05:31.970Z,144.00
2019-03-08T06:06:31.957Z,152.00
2019-03-08T06:07:31.938Z,156.00
2019-03-08T06:08:31.917Z,168.00
2019-03-08T06:09:31.901Z,176.00
2019-03-08T06:10:31.879Z,184.00
2019-03-08T06:11:31.869Z,196.00
2019-03-08T06:12:31.849Z,204.00
2019-03-08T06:13:31.832Z,212.00
2019-03-08T06:14:31.818Z,216.00
2019-03-08T06:15:31.798Z,232.00
2019-03-08T06:16:31.780Z,236.00
2019-03-08T06:17:31.770Z,252.00
2019-03-08T06:18:31.741Z,264.00
2019-03-08T06:19:31.722Z,276.00
2019-03-08T06:20:31.723Z,288.00
2019-03-08T06:21:31.697Z,300.00
2019-03-08T06:22:31.675Z,312.00
2019-03-08T06:23:31.661Z,328.00
2019-03-08T06:24:31.647Z,340.00
2019-03-08T06:25:31.621Z,356.00
2019-03-08T06:26:31.615Z,364.00
2019-03-08T06:27:31.590Z,372.00
2019-03-08T06:28:31.615Z,376.00
2019-03-08T06:29:31.553Z,380.00
2019-03-08T06:30:31.547Z,384.00
2019-03-08T06:31:31.518Z,392.00
2019-03-08T06:32:31.497Z,404.00
2019-03-08T06:33:31.489Z,416.00
2019-03-08T06:34:32.857Z,436.00
2019-03-08T06:35:31.449Z,460.00
2019-03-08T06:36:31.435Z,480.00
2019-03-08T06:37:31.419Z,504.00
2019-03-08T06:38:31.398Z,520.00
2019-03-08T06:39:31.378Z,540.00
2019-03-08T06:40:31.364Z,544.00
2019-03-08T06:41:31.348Z,544.00
2019-03-08T06:42:31.326Z,536.00
2019-03-08T06:43:31.312Z,528.00
2019-03-08T06:44:31.298Z,520.00
2019-03-08T06:45:31.274Z,508.00
2019-03-08T06:46:31.257Z,496.00
2019-03-08T06:47:31.240Z,484.00
2019-03-08T06:48:31.222Z,472.00
2019-03-08T06:49:31.232Z,464.00
2019-03-08T06:50:31.186Z,452.00
2019-03-08T06:51:31.173Z,440.00
2019-03-08T06:52:31.154Z,436.00
2019-03-08T06:53:31.135Z,436.00
2019-03-08T06:54:31.122Z,436.00
2019-03-08T06:55:31.114Z,428.00
2019-03-08T06:56:31.091Z,428.00
2019-03-08T06:57:31.068Z,428.00
2019-03-08T06:58:31.052Z,432.00
2019-03-08T06:59:31.036Z,428.00
2019-03-08T07:00:31.010Z,428.00
2019-03-08T07:01:31.001Z,428.00
2019-03-08T07:02:30.982Z,428.00
2019-03-08T07:03:30.964Z,428.00
2019-03-08T07:04:30.947Z,436.00
2019-03-08T07:05:30.932Z,444.00
2019-03-08T07:06:30.916Z,456.00
2019-03-08T07:07:30.888Z,468.00
2019-03-08T07:08:30.881Z,480.00
2019-03-08T07:09:30.863Z,492.00
2019-03-08T07:10:30.855Z,500.00
2019-03-08T07:11:30.825Z,508.00
2019-03-08T07:12:30.808Z,524.00
2019-03-08T07:13:30.793Z,532.00
2019-03-08T07:14:30.773Z,548.00
2019-03-08T07:15:30.773Z,576.00
2019-03-08T07:16:30.745Z,636.00
2019-03-08T07:17:30.722Z,764.00
2019-03-08T07:18:30.702Z,936.00
2019-03-08T07:19:30.689Z,1068.00
2019-03-08T07:20:30.674Z,1124.00
2019-03-08T07:21:30.658Z,1104.00
2019-03-08T07:22:30.636Z,1080.00
2019-03-08T07:23:30.624Z,1072.00
2019-03-08T07:24:30.602Z,1096.00
2019-03-08T07:25:30.591Z,1144.00
2019-03-08T07:26:30.569Z,1220.00
2019-03-08T07:27:30.556Z,1324.00
2019-03-08T07:28:30.539Z,1468.00
2019-03-08T07:29:30.520Z,1604.00
2019-03-08T07:30:30.503Z,1700.00
2019-03-08T07:31:30.487Z,1752.00
2019-03-08T07:32:30.469Z,1792.00
2019-03-08T07:33:30.471Z,1828.00
2019-03-08T07:34:30.448Z,1864.00
2019-03-08T07:35:30.423Z,1900.00
2019-03-08T07:36:30.399Z,1924.00
2019-03-08T07:37:30.386Z,1956.00
2019-03-08T07:38:30.367Z,2000.00
2019-03-08T07:39:30.356Z,2032.00
2019-03-08T07:40:30.339Z,2068.00
2019-03-08T07:41:30.323Z,2100.00
2019-03-08T07:42:30.303Z,2128.00
2019-03-08T07:43:30.287Z,2156.00
2019-03-08T07:44:30.274Z,2188.00
2019-03-08T07:45:30.254Z,2220.00
2019-03-08T07:46:30.234Z,2252.00
2019-03-08T07:47:30.224Z,2284.00
2019-03-08T07:48:30.206Z,2316.00
2019-03-08T07:49:30.195Z,2336.00
2019-03-08T07:50:30.174Z,2364.00
2019-03-08T07:51:30.160Z,2400.00
2019-03-08T07:52:30.145Z,2424.00
2019-03-08T07:53:30.127Z,2460.00
2019-03-08T07:54:30.104Z,2500.00
2019-03-08T07:55:30.113Z,2524.00
2019-03-08T07:56:30.083Z,2552.00
2019-03-08T07:57:30.059Z,2572.00
2019-03-08T07:58:30.060Z,2612.00
2019-03-08T07:59:30.032Z,2644.00
2019-03-08T08:00:30.010Z,2676.00
2019-03-08T08:01:30.001Z,2708.00
2019-03-08T08:02:29.984Z,2736.00
2019-03-08T08:03:29.968Z,2768.00
2019-03-08T08:04:30.565Z,2792.00
2019-03-08T08:05:29.938Z,2824.00
2019-03-08T08:06:29.922Z,2856.00
2019-03-08T08:07:29.906Z,2888.00
2019-03-08T08:08:29.889Z,2920.00
2019-03-08T08:09:29.873Z,2956.00
2019-03-08T08:10:29.866Z,2988.00
2019-03-08T08:11:29.843Z,3020.00
2019-03-08T08:12:29.831Z,3048.00
2019-03-08T08:13:29.811Z,3076.00
2019-03-08T08:14:39.057Z,3100.00
2019-03-08T08:15:29.776Z,3128.00
2019-03-08T08:16:29.766Z,3160.00
2019-03-08T08:17:29.750Z,3188.00
2019-03-08T08:18:29.737Z,3220.00
2019-03-08T08:19:29.726Z,3252.00
2019-03-08T08:20:29.707Z,3284.00
2019-03-08T08:21:29.694Z,3320.00
2019-03-08T08:22:29.679Z,3348.00
2019-03-08T08:23:34.380Z,3384.00
2019-03-08T08:24:29.647Z,3416.00
2019-03-08T08:25:36.499Z,3448.00
2019-03-08T08:26:29.618Z,3496.00
2019-03-08T08:27:29.601Z,3536.00
2019-03-08T08:28:29.589Z,3572.00
2019-03-08T08:29:34.969Z,3608.00
2019-03-08T08:30:29.564Z,3648.00
2019-03-08T08:31:29.542Z,3680.00
2019-03-08T08:32:29.527Z,3716.00
2019-03-08T08:33:29.513Z,3756.00
2019-03-08T08:34:29.498Z,3800.00
2019-03-08T08:35:29.497Z,3852.00
2019-03-08T08:36:29.469Z,3908.00
2019-03-08T08:37:29.455Z,3964.00
2019-03-08T08:38:29.441Z,4020.00
2019-03-08T08:39:29.421Z,4096.00
2019-03-08T08:40:29.409Z,4184.00
2019-03-08T08:41:29.395Z,4284.00
2019-03-08T08:42:29.388Z,4400.00
2019-03-08T08:43:29.363Z,4508.00
2019-03-08T08:44:29.347Z,4640.00
2019-03-08T08:45:29.336Z,4812.00
2019-03-08T08:46:29.321Z,5036.00
2019-03-08T08:47:29.309Z,5288.00
2019-03-08T08:48:29.289Z,5532.00
2019-03-08T08:49:29.273Z,5768.00
2019-03-08T08:50:29.262Z,5960.00
2019-03-08T08:51:29.249Z,6108.00
2019-03-08T08:52:29.233Z,6196.00
2019-03-08T08:53:29.224Z,6344.00
2019-03-08T08:54:29.202Z,6540.00
2019-03-08T08:55:29.191Z,6136.00
2019-03-08T08:56:29.176Z,6728.00
2019-03-08T08:57:29.154Z,6636.00
2019-03-08T08:58:29.148Z,6568.00
2019-03-08T08:59:29.131Z,6648.00
2019-03-08T09:00:29.117Z,6092.00
2019-03-08T09:01:29.108Z,6664.00
2019-03-08T09:02:29.088Z,5132.00
2019-03-08T09:03:29.079Z,5792.00
2019-03-08T09:04:29.056Z,5608.00
2019-03-08T09:05:29.046Z,4752.00
2019-03-08T09:06:29.034Z,3672.00
2019-03-08T09:07:29.023Z,3540.00
2019-03-08T09:08:29.006Z,3184.00
2019-03-08T09:09:28.988Z,2972.00
2019-03-08T09:10:28.973Z,2852.00
2019-03-08T09:11:28.995Z,2784.00
2019-03-08T09:12:28.948Z,2736.00
2019-03-08T09:13:28.932Z,2720.00
2019-03-08T09:14:28.918Z,2732.00
2019-03-08T09:15:28.910Z,2764.00
2019-03-08T09:16:28.905Z,2784.00
2019-03-08T09:17:28.896Z,2760.00
2019-03-08T09:18:28.870Z,2732.00
2019-03-08T09:19:28.857Z,2724.00
2019-03-08T09:20:28.836Z,2728.00
2019-03-08T09:21:28.828Z,2748.00
2019-03-08T09:22:28.810Z,2944.00
2019-03-08T09:23:28.858Z,3212.00
2019-03-08T09:24:28.776Z,3536.00
2019-03-08T09:25:28.762Z,4572.00
2019-03-08T09:26:28.766Z,7020.00
2019-03-08T09:27:28.738Z,4348.00
2019-03-08T09:28:28.725Z,4356.00
2019-03-08T09:29:28.712Z,7096.00
2019-03-08T09:30:28.698Z,3704.00
2019-03-08T09:31:28.688Z,5488.00
2019-03-08T09:32:28.666Z,5912.00
2019-03-08T09:33:28.659Z,3880.00
2019-03-08T09:34:28.642Z,6288.00
2019-03-08T09:35:28.629Z,7172.00
2019-03-08T09:36:28.612Z,7216.00
2019-03-08T09:37:28.611Z,4588.00
2019-03-08T09:38:28.607Z,2532.00
2019-03-08T09:39:28.575Z,2604.00
2019-03-08T09:40:28.560Z,3764.00
2019-03-08T09:41:28.542Z,3388.00
2019-03-08T09:42:28.533Z,2552.00
2019-03-08T09:43:28.516Z,2536.00
2019-03-08T09:44:28.510Z,3020.00
2019-03-08T09:45:28.494Z,2640.00
2019-03-08T09:46:28.474Z,2844.00
2019-03-08T09:47:28.459Z,2604.00
2019-03-08T09:48:28.449Z,2648.00
2019-03-08T09:49:28.437Z,2476.00
2019-03-08T09:50:28.422Z,2304.00
2019-03-08T09:51:28.405Z,2368.00
2019-03-08T09:52:28.390Z,2580.00
2019-03-08T09:53:28.381Z,2480.00
2019-03-08T09:54:28.368Z,2464.00
2019-03-08T09:55:28.347Z,2480.00
2019-03-08T09:56:28.341Z,2464.00
2019-03-08T09:57:28.320Z,2436.00
2019-03-08T09:58:28.313Z,2388.00
2019-03-08T09:59:28.293Z,2436.00
2019-03-08T10:00:28.279Z,7292.00
2019-03-08T10:01:28.263Z,3060.00
2019-03-08T10:02:28.255Z,3752.00
2019-03-08T10:03:28.242Z,2984.00
2019-03-08T10:04:28.226Z,7624.00
2019-03-08T10:05:28.210Z,7388.00
2019-03-08T10:06:28.196Z,7360.00
2019-03-08T10:07:28.184Z,7292.00
2019-03-08T10:08:28.168Z,7388.00
2019-03-08T10:09:28.154Z,7420.00
2019-03-08T10:10:28.138Z,7664.00
2019-03-08T10:11:28.130Z,7520.00
2019-03-08T10:12:29.387Z,7664.00
2019-03-08T10:13:28.100Z,6980.00
2019-03-08T10:14:28.082Z,7924.00
2019-03-08T10:15:28.074Z,8120.00
2019-03-08T10:16:28.090Z,8276.00
2019-03-08T10:17:28.044Z,8408.00
2019-03-08T10:18:28.029Z,8564.00
2019-03-08T10:19:28.012Z,7428.00
2019-03-08T10:20:28.008Z,8532.00
2019-03-08T10:21:27.986Z,8908.00
2019-03-08T10:22:27.971Z,9172.00
2019-03-08T10:23:27.962Z,9252.00
2019-03-08T10:24:27.944Z,9412.00
2019-03-08T10:25:27.938Z,7720.00
2019-03-08T10:26:27.921Z,9616.00
2019-03-08T10:27:27.910Z,9760.00
2019-03-08T10:28:27.895Z,9792.00
2019-03-08T10:29:27.880Z,10076.00
2019-03-08T10:30:27.872Z,5820.00
2019-03-08T10:31:27.856Z,7008.00
2019-03-08T10:32:36.890Z,4992.00
2019-03-08T10:33:27.831Z,6500.00
2019-03-08T10:34:27.831Z,7232.00
2019-03-08T10:35:27.808Z,5088.00
2019-03-08T10:36:27.790Z,4648.00
2019-03-08T10:37:27.782Z,5288.00
2019-03-08T10:38:27.770Z,4640.00
2019-03-08T10:39:27.758Z,4880.00
2019-03-08T10:40:27.744Z,4512.00
2019-03-08T10:41:27.732Z,4780.00
2019-03-08T10:42:27.721Z,4788.00
2019-03-08T10:43:27.704Z,4364.00
2019-03-08T10:44:27.694Z,9120.00
2019-03-08T10:45:27.688Z,5516.00
2019-03-08T10:46:27.662Z,7316.00
2019-03-08T10:47:27.654Z,6260.00
2019-03-08T10:48:27.636Z,7792.00
2019-03-08T10:49:27.626Z,6540.00
2019-03-08T10:50:27.608Z,6776.00
2019-03-08T10:51:27.603Z,6656.00
2019-03-08T10:52:27.587Z,5456.00
2019-03-08T10:53:27.573Z,4124.00
2019-03-08T10:54:27.558Z,3940.00
2019-03-08T10:55:27.546Z,3308.00
2019-03-08T10:56:27.534Z,3616.00
2019-03-08T10:57:27.524Z,7872.00
2019-03-08T10:58:27.509Z,9296.00
2019-03-08T10:59:27.491Z,8220.00
2019-03-08T11:00:27.483Z,3644.00
2019-03-08T11:01:27.471Z,8912.00
2019-03-08T11:02:27.463Z,8836.00
2019-03-08T11:03:27.450Z,8748.00
2019-03-08T11:04:27.437Z,8832.00
2019-03-08T11:05:27.410Z,9036.00
2019-03-08T11:06:27.410Z,9264.00
2019-03-08T11:07:27.392Z,9332.00
2019-03-08T11:08:30.017Z,9328.00
2019-03-08T11:09:27.369Z,9108.00
2019-03-08T11:10:27.356Z,9392.00
2019-03-08T11:11:27.346Z,6888.00
2019-03-08T11:12:27.328Z,9348.00
2019-03-08T11:13:27.314Z,9112.00
2019-03-08T11:14:27.302Z,9232.00
2019-03-08T11:15:27.289Z,9268.00
2019-03-08T11:16:27.280Z,8652.00
2019-03-08T11:17:27.574Z,8944.00
2019-03-08T11:18:27.256Z,8904.00
2019-03-08T11:19:27.717Z,8840.00
2019-03-08T11:20:27.230Z,7112.00
2019-03-08T11:21:27.222Z,6664.00
2019-03-08T11:22:27.210Z,8616.00
2019-03-08T11:23:27.203Z,8608.00
2019-03-08T11:24:27.191Z,8744.00
2019-03-08T11:25:34.746Z,9056.00
2019-03-08T11:26:27.170Z,3860.00
2019-03-08T11:27:27.154Z,4944.00
2019-03-08T11:28:27.147Z,3260.00
2019-03-08T11:29:27.124Z,4648.00
2019-03-08T11:30:27.118Z,5148.00
2019-03-08T11:31:27.107Z,6976.00
2019-03-08T11:32:27.100Z,6504.00
2019-03-08T11:33:27.086Z,6584.00
2019-03-08T11:34:27.074Z,9696.00
2019-03-08T11:35:27.062Z,3188.00
2019-03-08T11:36:27.050Z,4112.00
2019-03-08T11:37:27.878Z,4948.00
2019-03-08T11:38:27.034Z,2920.00
2019-03-08T11:39:27.020Z,6512.00
2019-03-08T11:40:27.011Z,9292.00
2019-03-08T11:41:27.003Z,10188.00
2019-03-08T11:42:26.989Z,9580.00
2019-03-08T11:43:26.983Z,3972.00
2019-03-08T11:44:26.966Z,4312.00
2019-03-08T11:45:26.954Z,4908.00
2019-03-08T11:46:26.943Z,4680.00
2019-03-08T11:47:26.934Z,4272.00
2019-03-08T11:48:26.930Z,4196.00
2019-03-08T11:49:26.916Z,4024.00
2019-03-08T11:50:26.904Z,3652.00
2019-03-08T11:51:26.892Z,3432.00
2019-03-08T11:52:26.882Z,3176.00
2019-03-08T11:53:26.873Z,3060.00
2019-03-08T11:54:26.866Z,4244.00
2019-03-08T11:55:26.852Z,6588.00
2019-03-08T11:56:26.838Z,3984.00
2019-03-08T11:57:26.828Z,2680.00
2019-03-08T11:58:26.818Z,3720.00
2019-03-08T11:59:26.807Z,7804.00
2019-03-08T12:00:26.798Z,10060.00
2019-03-08T12:01:26.792Z,6016.00
2019-03-08T12:02:26.780Z,3376.00
2019-03-08T12:03:26.768Z,3508.00
2019-03-08T12:04:26.758Z,10328.00
2019-03-08T12:05:26.750Z,9284.00
2019-03-08T12:06:26.738Z,3768.00
2019-03-08T12:07:26.726Z,4776.00
2019-03-08T12:08:26.718Z,4480.00
2019-03-08T12:09:26.706Z,6968.00
2019-03-08T12:10:26.696Z,8432.00
2019-03-08T12:11:26.684Z,3552.00
2019-03-08T12:12:26.678Z,8804.00
2019-03-08T12:13:26.663Z,9216.00
2019-03-08T12:14:26.652Z,9392.00
2019-03-08T12:15:26.648Z,3700.00
2019-03-08T12:16:26.634Z,9572.00
2019-03-08T12:17:26.621Z,9748.00
2019-03-08T12:18:26.626Z,9616.00
2019-03-08T12:19:26.606Z,9984.00
2019-03-08T12:20:26.592Z,7712.00
2019-03-08T12:21:26.594Z,9576.00
2019-03-08T12:22:26.576Z,9504.00
2019-03-08T12:23:29.220Z,8224.00
2019-03-08T12:24:26.560Z,8064.00
2019-03-08T12:25:26.546Z,9048.00
2019-03-08T12:26:26.540Z,9156.00
2019-03-08T12:27:26.530Z,9160.00
2019-03-08T12:28:26.522Z,2920.00
2019-03-08T12:29:26.525Z,3336.00
2019-03-08T12:30:26.510Z,8428.00
2019-03-08T12:31:26.495Z,3808.00
2019-03-08T12:32:26.482Z,7544.00
2019-03-08T12:33:26.476Z,3392.00
2019-03-08T12:34:26.463Z,3164.00
2019-03-08T12:35:26.447Z,5028.00
2019-03-08T12:36:26.443Z,2800.00
2019-03-08T12:37:26.450Z,2740.00
2019-03-08T12:38:26.430Z,2940.00
2019-03-08T12:39:26.420Z,4176.00
2019-03-08T12:40:26.410Z,6928.00